Airfield :
LOGIN :

Register | Disclaimer

   EN    FR    IT 

 










Legend :    VFR   Marginal VFR   IFR   Intensive IFR   Very Intensive IFR
Visi :
Ceiling :
>= 8 km
>= 3000ft
5 to 8 km
1000 to 3000 ft
1500m to 5 km
500 to 1000 ft
800 to 1500m
200 to 500 ft
< 800m
< 200 ft
Symbols :   Thunderstorms  Fog  Heavy snow  Heavy precipitations  Wind > 20 kt
SIGMETs :     Misc.  Thunderstorms  Icing  Turbulence  Mountain Waves  Volcanic Ashes






- Airport Elevation : 913 ft


LFSX - Luxeuil

CURRENT METAR :
  • 211330Z AUTO 36009KT 320V050 9999 -RA FEW031/// SCT040/// BKN049/// ///TCU 05/01 Q1019

EXPIRED METARs :
  • 211300Z AUTO 34008KT 290V060 9999 FEW038/// BKN045/// BKN052/// ///TCU 08/M00 Q1019
  • 211230Z AUTO 33013KT 280V010 9999 SCT049 BKN058 09/M01 Q1019
  • 211200Z AUTO 04009KT 020V080 9999 FEW036 BKN048 08/02 Q1019
  • 211130Z AUTO 34010KT 290V040 9999 FEW047/// ///TCU 08/M01 Q1019
  • 211100Z AUTO 34010KT 290V030 9999 FEW037/// SCT044/// BKN054/// ///TCU 08/M01 Q1019
  • 211030Z AUTO 34010KT 290V010 9999 ///CB 07/00 Q1019
  • 211000Z AUTO 35009KT 320V030 9999 FEW015/// SCT030/// BKN049/// ///TCU 05/01 Q1019
  • 210930Z AUTO 29008KT 260V320 9999 BKN014/// BKN026/// BKN042/// ///CB 06/03 Q1019
  • 210900Z AUTO 30008KT 9999 -RA BKN015/// BKN024/// BKN037/// ///TCU 04/02 Q1020

TAF TAF LFSX
Valid from the 21 at 09:00 until the 22 at 09:00 UTC


210800Z 2109/2209 32008KT 9999 BKN025
TEMPO 2109/2118 4000 -SHRA SCT025TCU
PROB40
TEMPO 2111/2115 3000 SHRA BKN020 SCT025CB
TEMPO 2200/2207 BKN010



MET'MAP, your aeronautical weather chart ! - Copyright ORBIFLY December 2007 - Disclaimer

ORBIFLY MET'MAP TEAM :

Programming & Development : Alexandra Zaïnal
Original concept : Baudouin d'Aumeries
Technical & hardware support : Manuel Goepfert
Assistance : Marc-Olivier Méhu




SOURCES & CREDITS :

   NOAA